createdAt,value
2019-04-21T00:00:29.745Z,9.40
2019-04-21T00:03:07.367Z,9.80
2019-04-21T00:05:53.352Z,9.67
2019-04-21T00:08:39.447Z,9.30
2019-04-21T00:11:01.394Z,10.47
2019-04-21T00:13:17.859Z,9.57
2019-04-21T00:15:42.044Z,10.53
2019-04-21T00:18:25.414Z,10.33
2019-04-21T00:20:58.614Z,10.47
2019-04-21T00:23:41.289Z,11.60
2019-04-21T00:26:09.113Z,10.93
2019-04-21T00:28:53.676Z,11.73
2019-04-21T00:31:17.010Z,10.93
2019-04-21T00:33:34.314Z,15.43
2019-04-21T00:36:11.523Z,25.90
2019-04-21T00:39:12.668Z,25.57
2019-04-21T00:41:27.663Z,25.90
2019-04-21T00:43:52.164Z,23.33
2019-04-21T00:46:22.994Z,20.80
2019-04-21T00:48:57.423Z,20.27
2019-04-21T00:51:40.693Z,17.90
2019-04-21T00:54:13.426Z,15.87
2019-04-21T00:56:34.022Z,15.47
2019-04-21T00:59:11.820Z,14.20
2019-04-21T01:01:35.956Z,15.70
2019-04-21T01:04:09.699Z,13.87
2019-04-21T01:06:43.720Z,14.00
2019-04-21T01:09:07.997Z,14.73
2019-04-21T01:11:44.224Z,13.63
2019-04-21T01:14:13.176Z,14.03
2019-04-21T01:16:48.587Z,14.80
2019-04-21T01:19:14.426Z,14.00
2019-04-21T01:21:23.440Z,13.57
2019-04-21T01:23:55.642Z,15.13
2019-04-21T01:26:33.798Z,14.00
2019-04-21T01:29:12.091Z,14.30
2019-04-21T01:31:42.125Z,15.80
2019-04-21T01:34:15.023Z,15.60
2019-04-21T01:36:47.454Z,14.23
2019-04-21T01:39:21.304Z,13.97
2019-04-21T01:41:51.086Z,13.60
2019-04-21T01:44:29.898Z,14.70
2019-04-21T01:46:48.649Z,15.10
2019-04-21T01:49:18.163Z,13.37
2019-04-21T01:52:08.964Z,12.83
2019-04-21T01:54:48.118Z,13.33
2019-04-21T01:57:17.553Z,13.03
2019-04-21T01:59:48.780Z,12.83
2019-04-21T02:02:26.687Z,13.33
2019-04-21T02:05:03.207Z,12.77
2019-04-21T02:07:27.479Z,13.53
2019-04-21T02:10:03.454Z,13.40
2019-04-21T02:12:36.093Z,11.57
2019-04-21T02:15:06.579Z,11.47
2019-04-21T02:17:31.049Z,11.37
2019-04-21T02:19:56.173Z,11.93
2019-04-21T02:22:56.108Z,12.20
2019-04-21T02:25:10.942Z,12.20
2019-04-21T02:27:36.433Z,11.50
2019-04-21T02:30:10.218Z,12.20
2019-04-21T02:32:47.923Z,11.40
2019-04-21T02:40:29.739Z,11.43
2019-04-21T02:45:34.255Z,12.03
2019-04-21T02:50:25.901Z,13.97
2019-04-21T03:00:36.456Z,14.47
2019-04-21T03:05:58.746Z,15.17
2019-04-21T03:08:44.300Z,14.80
2019-04-21T03:11:09.043Z,13.73
2019-04-21T03:18:43.673Z,13.30
2019-04-21T03:21:07.440Z,14.40
2019-04-21T03:28:35.700Z,13.17
2019-04-21T03:34:18.524Z,13.73
2019-04-21T03:36:43.688Z,14.07
2019-04-21T03:38:43.327Z,14.67
2019-04-21T03:46:15.877Z,13.87
2019-04-21T03:48:51.773Z,14.07
2019-04-21T03:51:23.480Z,12.57
2019-04-21T03:53:46.281Z,13.90
2019-04-21T03:56:29.494Z,13.00
2019-04-21T03:58:58.483Z,12.53
2019-04-21T04:01:58.369Z,12.20
2019-04-21T04:07:50.111Z,14.23
2019-04-21T04:12:42.698Z,13.80
2019-04-21T04:15:18.340Z,12.80
2019-04-21T04:17:40.084Z,12.00
2019-04-21T04:20:22.454Z,11.13
2019-04-21T04:22:53.432Z,11.77
2019-04-21T04:25:17.486Z,12.00
2019-04-21T04:28:02.945Z,12.10
2019-04-21T04:30:21.592Z,12.50
2019-04-21T04:32:53.764Z,12.80
2019-04-21T04:35:34.246Z,11.87
2019-04-21T04:38:13.569Z,12.67
2019-04-21T04:40:44.878Z,11.90
2019-04-21T04:43:19.321Z,13.20
2019-04-21T04:48:13.473Z,12.23
2019-04-21T04:53:31.032Z,12.87
2019-04-21T05:03:41.227Z,14.03
2019-04-21T05:06:34.845Z,13.00
2019-04-21T05:16:41.046Z,11.83
2019-04-21T05:23:48.456Z,12.83
2019-04-21T05:26:14.357Z,13.10
2019-04-21T05:28:44.710Z,12.17
2019-04-21T05:31:47.693Z,12.23
2019-04-21T05:34:22.084Z,14.20
2019-04-21T05:37:17.069Z,15.50
2019-04-21T05:40:00.643Z,14.87
2019-04-21T05:42:37.005Z,14.97
2019-04-21T05:45:18.543Z,16.23
2019-04-21T05:48:14.285Z,13.23
2019-04-21T05:50:27.989Z,15.80
2019-04-21T05:52:54.690Z,15.23
2019-04-21T05:55:35.970Z,15.37
2019-04-21T05:58:03.279Z,15.97
2019-04-21T06:01:48.587Z,15.43
2019-04-21T06:03:17.660Z,17.17
2019-04-21T06:05:54.438Z,15.87
2019-04-21T06:08:13.437Z,17.83
2019-04-21T06:10:50.883Z,16.77
2019-04-21T06:13:21.729Z,17.37
2019-04-21T06:15:50.308Z,17.17
2019-04-21T06:18:20.113Z,18.23
2019-04-21T06:20:51.794Z,17.77
2019-04-21T06:23:20.943Z,17.43
2019-04-21T06:26:25.629Z,19.23
2019-04-21T06:28:31.761Z,19.43
2019-04-21T06:30:59.371Z,19.43
2019-04-21T06:33:34.647Z,19.23
2019-04-21T06:36:31.496Z,18.90
2019-04-21T06:44:14.218Z,19.63
2019-04-21T06:46:34.993Z,17.27
2019-04-21T06:49:01.274Z,17.87
2019-04-21T06:51:33.701Z,19.00
2019-04-21T06:54:04.323Z,17.90
2019-04-21T06:56:37.991Z,16.90
2019-04-21T06:59:03.701Z,16.37
2019-04-21T07:01:36.847Z,15.83
2019-04-21T07:04:11.745Z,15.60
2019-04-21T07:06:43.603Z,16.57
2019-04-21T07:09:18.915Z,16.17
2019-04-21T07:11:38.161Z,17.60
2019-04-21T07:14:25.869Z,18.67
2019-04-21T07:16:44.710Z,16.93
2019-04-21T07:21:46.857Z,16.60
2019-04-21T07:24:22.720Z,17.57
2019-04-21T07:26:50.790Z,16.80
2019-04-21T07:29:25.877Z,16.93
2019-04-21T07:31:54.384Z,15.77
2019-04-21T07:39:18.398Z,14.93
2019-04-21T07:41:48.423Z,15.50
2019-04-21T07:44:17.118Z,14.53
2019-04-21T07:46:46.983Z,14.80
2019-04-21T07:49:50.222Z,13.00
2019-04-21T07:52:35.098Z,12.97
2019-04-21T07:55:14.233Z,12.83
2019-04-21T07:57:34.482Z,12.20
2019-04-21T08:00:16.107Z,11.80
2019-04-21T08:02:37.329Z,11.63
2019-04-21T08:07:49.368Z,11.87
2019-04-21T08:10:03.444Z,11.00
2019-04-21T08:12:35.905Z,11.80
2019-04-21T08:15:15.717Z,11.30
2019-04-21T08:17:41.520Z,10.57
2019-04-21T08:20:15.592Z,10.72
2019-04-21T08:22:46.801Z,10.58
2019-04-21T08:25:16.595Z,9.95
2019-04-21T08:27:49.511Z,9.48
2019-04-21T08:30:19.090Z,9.43
2019-04-21T08:33:04.359Z,9.60
2019-04-21T08:37:49.535Z,9.43
2019-04-21T08:40:27.320Z,10.05
2019-04-21T08:42:54.092Z,10.03
2019-04-21T08:45:28.153Z,10.25
2019-04-21T08:50:25.335Z,11.68
2019-04-21T08:56:10.858Z,10.08
2019-04-21T08:58:59.060Z,9.28
2019-04-21T09:01:55.279Z,8.48
2019-04-21T09:04:25.263Z,9.68
2019-04-21T09:09:32.151Z,10.37
2019-04-21T09:11:59.651Z,10.08
2019-04-21T09:14:33.434Z,10.50
2019-04-21T09:16:56.749Z,9.95
2019-04-21T09:19:44.286Z,9.85
2019-04-21T09:22:05.869Z,9.13
2019-04-21T09:24:33.468Z,9.38
2019-04-21T09:27:05.056Z,9.03
2019-04-21T09:29:28.438Z,8.90
2019-04-21T09:31:54.470Z,9.48
2019-04-21T09:34:30.074Z,9.28
2019-04-21T09:37:09.927Z,8.18
2019-04-21T09:39:26.273Z,8.23
2019-04-21T09:41:59.139Z,7.45
2019-04-21T09:44:30.631Z,7.37
2019-04-21T09:47:01.256Z,8.33
2019-04-21T09:49:31.701Z,7.35
2019-04-21T09:51:59.968Z,8.10
2019-04-21T09:54:33.645Z,7.92
2019-04-21T09:57:05.865Z,7.65
2019-04-21T09:59:38.264Z,7.70
2019-04-21T10:02:08.458Z,9.33
2019-04-21T10:04:35.547Z,8.30
2019-04-21T10:07:05.205Z,8.83
2019-04-21T10:09:35.555Z,10.05
2019-04-21T10:12:05.309Z,9.25
2019-04-21T10:14:34.833Z,9.78
2019-04-21T10:17:27.565Z,9.80
2019-04-21T10:19:58.604Z,11.50
2019-04-21T10:22:28.842Z,9.88
2019-04-21T10:24:58.577Z,10.70
2019-04-21T10:27:29.134Z,8.50
2019-04-21T10:29:58.940Z,9.58
2019-04-21T10:32:28.438Z,11.53
2019-04-21T10:34:59.101Z,9.55
2019-04-21T10:37:42.601Z,9.20
2019-04-21T10:40:00.190Z,8.60
2019-04-21T10:42:29.698Z,9.58
2019-04-21T10:45:01.065Z,8.85
2019-04-21T10:47:31.296Z,8.20
2019-04-21T10:50:00.985Z,8.78
2019-04-21T10:52:49.407Z,8.23
2019-04-21T10:55:36.760Z,7.85
2019-04-21T10:58:10.829Z,7.20
2019-04-21T11:00:42.122Z,8.18
2019-04-21T11:03:42.940Z,8.35
2019-04-21T11:06:14.756Z,8.83
2019-04-21T11:08:48.568Z,11.43
2019-04-21T11:11:16.225Z,8.55
2019-04-21T11:13:46.431Z,8.85
2019-04-21T11:16:17.150Z,8.35
2019-04-21T11:18:48.195Z,7.45
2019-04-21T11:21:18.808Z,8.33
2019-04-21T11:23:48.535Z,8.85
2019-04-21T11:26:18.129Z,8.40
2019-04-21T11:28:48.920Z,8.08
2019-04-21T11:31:18.896Z,8.98
2019-04-21T11:33:49.162Z,8.70
2019-04-21T11:36:19.498Z,8.10
2019-04-21T11:39:25.737Z,9.95
2019-04-21T11:41:49.779Z,8.53
2019-04-21T11:44:22.598Z,8.30
2019-04-21T11:46:52.027Z,7.60
2019-04-21T11:49:22.369Z,8.08
2019-04-21T11:51:53.129Z,8.60
2019-04-21T11:54:22.849Z,8.18
2019-04-21T11:56:52.884Z,8.60
2019-04-21T11:59:23.730Z,7.78
2019-04-21T12:01:54.022Z,8.65
2019-04-21T12:04:23.756Z,9.08
2019-04-21T12:06:54.576Z,8.60
2019-04-21T12:09:25.107Z,7.92
2019-04-21T12:11:54.697Z,8.43
2019-04-21T12:14:24.248Z,8.10
2019-04-21T12:16:55.100Z,9.03
2019-04-21T12:19:25.036Z,9.10
2019-04-21T12:22:05.010Z,8.28
2019-04-21T12:24:28.477Z,8.10
2019-04-21T12:26:57.967Z,8.18
2019-04-21T12:29:27.515Z,8.70
2019-04-21T12:32:20.226Z,8.58
2019-04-21T12:34:51.887Z,8.10
2019-04-21T12:37:22.661Z,8.38
2019-04-21T12:39:52.535Z,8.03
2019-04-21T12:42:22.870Z,8.15
2019-04-21T12:44:52.518Z,7.90
2019-04-21T12:47:22.018Z,7.75
2019-04-21T12:49:52.029Z,6.80
2019-04-21T12:52:21.856Z,7.95
2019-04-21T12:54:51.582Z,7.78
2019-04-21T12:57:21.422Z,6.85
2019-04-21T12:59:51.058Z,7.70
2019-04-21T13:02:21.887Z,7.25
2019-04-21T13:04:52.996Z,6.65
2019-04-21T13:07:23.559Z,7.40
2019-04-21T13:09:54.512Z,7.17
2019-04-21T13:12:24.858Z,6.30
2019-04-21T13:14:56.420Z,6.20
2019-04-21T13:17:25.668Z,6.90
2019-04-21T13:19:55.168Z,6.03
2019-04-21T13:22:25.864Z,5.92
2019-04-21T13:24:55.820Z,6.28
2019-04-21T13:27:26.797Z,6.53
2019-04-21T13:29:56.521Z,6.40
2019-04-21T13:32:26.948Z,6.60
2019-04-21T13:34:57.061Z,5.92
2019-04-21T13:37:27.753Z,5.72
2019-04-21T13:40:44.952Z,5.95
2019-04-21T13:43:02.830Z,5.47
2019-04-21T13:45:32.214Z,5.80
2019-04-21T13:48:01.927Z,6.10
2019-04-21T13:50:31.435Z,6.03
2019-04-21T13:53:00.919Z,5.92
2019-04-21T13:55:31.745Z,5.92
2019-04-21T13:58:02.111Z,6.10
2019-04-21T14:00:31.916Z,5.58
2019-04-21T14:03:02.822Z,6.00
2019-04-21T14:05:32.757Z,6.58
2019-04-21T14:08:03.140Z,5.67
2019-04-21T14:10:33.479Z,5.75
2019-04-21T14:13:04.552Z,5.78
2019-04-21T14:15:34.117Z,5.55
2019-04-21T14:18:04.655Z,5.90
2019-04-21T14:20:35.241Z,5.67
2019-04-21T14:23:15.702Z,5.80
2019-04-21T14:25:37.444Z,5.78
2019-04-21T14:28:08.085Z,5.45
2019-04-21T14:30:38.593Z,5.67
2019-04-21T14:33:09.890Z,5.87
2019-04-21T14:35:40.950Z,5.85
2019-04-21T14:38:10.850Z,6.00
2019-04-21T14:40:41.733Z,5.95
2019-04-21T14:43:12.023Z,5.67
2019-04-21T14:45:52.798Z,5.58
2019-04-21T14:48:41.192Z,5.00
2019-04-21T14:51:29.397Z,5.78
2019-04-21T14:54:21.000Z,4.87
2019-04-21T14:56:51.306Z,5.62
2019-04-21T14:59:21.376Z,5.40
2019-04-21T15:01:51.809Z,5.58
2019-04-21T15:04:22.449Z,5.50
2019-04-21T15:06:52.567Z,5.95
2019-04-21T15:09:22.969Z,5.50
2019-04-21T15:11:53.848Z,5.72
2019-04-21T15:14:24.111Z,6.00
2019-04-21T15:16:54.568Z,5.35
2019-04-21T15:19:24.626Z,5.85
2019-04-21T15:21:54.315Z,5.55
2019-04-21T15:24:24.348Z,5.50
2019-04-21T15:26:54.784Z,5.65
2019-04-21T15:29:24.737Z,5.58
2019-04-21T15:31:54.605Z,5.37
2019-04-21T15:34:25.985Z,6.15
2019-04-21T15:36:55.675Z,5.03
2019-04-21T15:39:25.734Z,5.33
2019-04-21T15:41:56.673Z,5.10
2019-04-21T15:44:27.092Z,5.00
2019-04-21T15:46:57.804Z,5.55
2019-04-21T15:49:40.664Z,5.50
2019-04-21T15:52:02.021Z,5.90
2019-04-21T15:54:32.352Z,6.05
2019-04-21T15:57:11.248Z,5.50
2019-04-21T15:59:55.817Z,6.10
2019-04-21T16:02:42.513Z,6.03
2019-04-21T16:05:13.057Z,6.10
2019-04-21T16:07:42.719Z,5.35
2019-04-21T16:10:26.556Z,6.05
2019-04-21T16:12:43.775Z,5.50
2019-04-21T16:15:14.495Z,5.80
2019-04-21T16:17:45.548Z,6.50
2019-04-21T16:20:15.602Z,6.03
2019-04-21T16:22:46.398Z,5.55
2019-04-21T16:25:17.007Z,6.15
2019-04-21T16:27:47.667Z,7.05
2019-04-21T16:30:19.557Z,6.75
2019-04-21T16:32:50.253Z,9.50
2019-04-21T16:35:21.722Z,8.58
2019-04-21T16:37:53.739Z,7.85
2019-04-21T16:40:23.422Z,6.97
2019-04-21T16:42:54.242Z,6.67
2019-04-21T16:45:25.230Z,6.72
2019-04-21T16:47:55.983Z,6.42
2019-04-21T16:50:27.890Z,6.85
2019-04-21T16:53:16.585Z,6.90
2019-04-21T16:55:51.187Z,6.40
2019-04-21T16:58:32.508Z,6.47
2019-04-21T17:01:10.771Z,6.45
2019-04-21T17:03:36.846Z,6.90
2019-04-21T17:06:07.019Z,6.85
2019-04-21T17:08:36.907Z,6.97
2019-04-21T17:11:16.152Z,7.10
2019-04-21T17:13:38.300Z,5.70
2019-04-21T17:16:38.600Z,6.08
2019-04-21T17:18:51.436Z,6.60
2019-04-21T17:21:11.145Z,6.72
2019-04-21T17:23:41.295Z,5.92
2019-04-21T17:26:11.043Z,6.67
2019-04-21T17:28:40.898Z,6.30
2019-04-21T17:31:10.843Z,6.10
2019-04-21T17:33:41.412Z,6.87
2019-04-21T17:36:11.483Z,6.12
2019-04-21T17:38:41.824Z,6.30
2019-04-21T17:41:21.866Z,5.83
2019-04-21T17:43:43.668Z,6.42
2019-04-21T17:46:20.337Z,6.72
2019-04-21T17:48:45.157Z,7.40
2019-04-21T17:51:31.966Z,6.30
2019-04-21T17:54:25.882Z,6.15
2019-04-21T17:57:15.362Z,7.15
2019-04-21T17:59:53.151Z,6.80
2019-04-21T18:02:12.999Z,7.60
2019-04-21T18:04:44.534Z,7.40
2019-04-21T18:07:26.251Z,5.97
2019-04-21T18:10:00.963Z,8.20
2019-04-21T18:12:30.373Z,6.75
2019-04-21T18:14:53.005Z,6.87
2019-04-21T18:17:16.222Z,6.65
2019-04-21T18:19:49.144Z,6.80
2019-04-21T18:22:51.260Z,7.60
2019-04-21T18:25:33.355Z,7.67
2019-04-21T18:27:52.599Z,8.40
2019-04-21T18:30:46.614Z,8.73
2019-04-21T18:33:24.143Z,10.68
2019-04-21T18:36:07.065Z,11.20
2019-04-21T18:39:04.292Z,12.18
2019-04-21T18:41:23.962Z,11.45
2019-04-21T18:47:10.259Z,10.72
2019-04-21T18:49:24.880Z,9.55
2019-04-21T18:52:05.944Z,9.10
2019-04-21T18:54:50.166Z,9.03
2019-04-21T18:57:12.927Z,9.25
2019-04-21T18:59:39.591Z,8.43
2019-04-21T19:02:09.875Z,9.18
2019-04-21T19:04:38.752Z,9.18
2019-04-21T19:07:20.134Z,9.05
2019-04-21T19:10:16.024Z,8.95
2019-04-21T19:12:36.627Z,9.03
2019-04-21T19:14:55.045Z,8.50
2019-04-21T19:20:10.411Z,9.00
2019-04-21T19:22:34.572Z,9.53
2019-04-21T19:25:07.346Z,9.00
2019-04-21T19:27:32.436Z,9.80
2019-04-21T19:30:17.696Z,9.73
2019-04-21T19:32:37.608Z,9.45
2019-04-21T19:34:54.895Z,9.28
2019-04-21T19:37:25.964Z,8.90
2019-04-21T19:40:05.713Z,9.38
2019-04-21T19:42:36.664Z,8.73
2019-04-21T19:45:11.839Z,9.60
2019-04-21T19:47:49.968Z,9.30
2019-04-21T19:50:19.425Z,9.50
2019-04-21T19:52:40.996Z,10.00
2019-04-21T19:55:00.623Z,9.18
2019-04-21T19:57:31.351Z,9.15
2019-04-21T20:00:04.209Z,8.93
2019-04-21T20:02:32.322Z,8.48
2019-04-21T20:05:07.072Z,9.28
2019-04-21T20:07:49.776Z,9.60
2019-04-21T20:10:27.034Z,9.10
2019-04-21T20:12:57.010Z,8.35
2019-04-21T20:15:37.411Z,7.45
2019-04-21T20:17:55.656Z,7.58
2019-04-21T20:20:11.329Z,7.97
2019-04-21T20:22:44.086Z,7.70
2019-04-21T20:25:17.257Z,7.95
2019-04-21T20:27:53.003Z,8.40
2019-04-21T20:30:34.706Z,7.33
2019-04-21T20:33:31.862Z,7.50
2019-04-21T20:35:46.950Z,7.80
2019-04-21T20:38:02.273Z,7.45
2019-04-21T20:40:33.191Z,7.97
2019-04-21T20:43:11.512Z,7.72
2019-04-21T20:45:49.259Z,8.28
2019-04-21T20:48:10.848Z,7.87
2019-04-21T20:50:36.433Z,7.45
2019-04-21T20:53:14.947Z,8.40
2019-04-21T20:55:43.934Z,8.48
2019-04-21T20:58:06.860Z,8.25
2019-04-21T21:00:56.147Z,8.45
2019-04-21T21:03:24.738Z,8.10
2019-04-21T21:05:49.463Z,7.92
2019-04-21T21:08:24.627Z,8.85
2019-04-21T21:10:50.072Z,7.33
2019-04-21T21:16:10.235Z,7.78
2019-04-21T21:18:52.022Z,7.90
2019-04-21T21:21:00.348Z,8.68
2019-04-21T21:23:33.537Z,8.10
2019-04-21T21:26:03.135Z,7.83
2019-04-21T21:28:26.607Z,8.10
2019-04-21T21:31:04.281Z,7.78
2019-04-21T21:33:35.576Z,7.85
2019-04-21T21:36:06.172Z,8.25
2019-04-21T21:38:39.339Z,8.43
2019-04-21T21:40:59.957Z,8.60
2019-04-21T21:43:23.685Z,7.97
2019-04-21T21:45:56.185Z,8.25
2019-04-21T21:48:38.042Z,9.17
2019-04-21T21:51:03.931Z,8.90
2019-04-21T21:53:28.841Z,8.63
2019-04-21T21:55:58.434Z,8.37
2019-04-21T21:58:33.698Z,8.43
2019-04-21T22:01:04.122Z,9.17
2019-04-21T22:03:35.340Z,8.93
2019-04-21T22:06:09.442Z,9.03
2019-04-21T22:08:32.716Z,9.50
2019-04-21T22:11:03.313Z,9.10
2019-04-21T22:13:46.212Z,9.23
2019-04-21T22:16:10.703Z,8.97
2019-04-21T22:18:56.548Z,9.43
2019-04-21T22:21:18.874Z,9.20
2019-04-21T22:23:47.896Z,9.27
2019-04-21T22:26:09.372Z,8.60
2019-04-21T22:28:40.011Z,8.63
2019-04-21T22:31:14.987Z,7.90
2019-04-21T22:33:48.296Z,8.83
2019-04-21T22:36:29.274Z,8.43
2019-04-21T22:38:59.618Z,7.93
2019-04-21T22:41:24.182Z,8.40
2019-04-21T22:43:49.331Z,8.30
2019-04-21T22:46:18.056Z,8.50
2019-04-21T22:48:54.063Z,8.18
2019-04-21T22:51:23.767Z,7.90
2019-04-21T22:53:53.458Z,8.43
2019-04-21T22:56:26.808Z,8.00
2019-04-21T22:58:53.110Z,8.60
2019-04-21T23:01:30.182Z,8.30
2019-04-21T23:04:00.449Z,8.83
2019-04-21T23:06:28.943Z,8.30
2019-04-21T23:08:57.066Z,8.30
2019-04-21T23:11:29.352Z,8.37
2019-04-21T23:14:04.228Z,7.53
2019-04-21T23:16:35.241Z,8.63
2019-04-21T23:19:19.987Z,8.30
2019-04-21T23:21:55.419Z,8.57
2019-04-21T23:24:26.495Z,7.93
2019-04-21T23:26:49.361Z,8.03
2019-04-21T23:29:25.772Z,8.50
2019-04-21T23:31:57.792Z,7.97
2019-04-21T23:34:13.394Z,8.87
2019-04-21T23:36:48.223Z,8.27
2019-04-21T23:39:19.510Z,8.10
2019-04-21T23:41:45.948Z,9.13
2019-04-21T23:44:15.144Z,9.00
2019-04-21T23:46:44.429Z,8.90
2019-04-21T23:49:28.304Z,9.00
2019-04-21T23:51:50.610Z,8.23
2019-04-21T23:54:17.405Z,7.60
2019-04-21T23:56:47.806Z,8.67
2019-04-21T23:59:18.069Z,8.77
